Terminal Aerodrome Forecast
Issued by NWS

Home | Current Version | Previous Version | Text Only | Print | Product List | Glossary On
Versions: 1 2 3 4 5 6 7 8 9 10 11 12 13 14
619
FTUS46 KHNX 240540
TAFMCE
TAF
KMCE 240540Z 2406/2506 11005KT P6SM SCT050
     FM241000 13003KT P6SM SCT035 BKN050
      TEMPO 2412/2416 5SM BR BKN015
     FM242200 VRB05KT P6SM SCT250=

USA.gov is the U.S. government's official web portal to all federal, state and local government web resources and services.